Las Tapias, Argentina
Current Conditions -  °F | °C
As of 11:00 AM on Monday 22 Dec 2014 (Local Time) from SACO Reporting Station
Few Clouds Few Clouds  
Wind Chill: 66°   Ceiling: Unl
Heat Index: 66°   Visibility: 6mi
Dew Point: 30°   Wind: 7mph
Humidity: 26%   Direction: 160°SSE
Pressure: 30.24"   Gusts: NA
Location:  31.94°S, 65.07°W
Report Text: SACO 221400Z 16006KT 9999 FEW030 19/M01 Q1024
Loading
Personal Weather Stations






























Interactive Weather Map New forecast layout! Learn more

10-Day Weather Forecast

Advertisements
Track Severe Weather on mobile